createdAt,value
2018-09-03T00:00:04.082Z,80.12
2018-09-03T00:00:24.316Z,80.13
2018-09-03T00:00:44.176Z,80.08
2018-09-03T00:01:04.869Z,80.03
2018-09-03T00:01:24.801Z,80.47
2018-09-03T00:01:45.155Z,80.47
2018-09-03T00:02:05.835Z,80.43
2018-09-03T00:02:25.696Z,80.37
2018-09-03T00:02:46.059Z,80.40
2018-09-03T00:03:06.802Z,80.60
2018-09-03T00:03:26.656Z,80.46
2018-09-03T00:03:47.034Z,80.39
2018-09-03T00:04:07.557Z,80.42
2018-09-03T00:04:27.416Z,80.76
2018-09-03T00:04:47.761Z,80.46
2018-09-03T00:05:08.332Z,80.53
2018-09-03T00:05:28.182Z,80.47
2018-09-03T00:05:48.890Z,80.46
2018-09-03T00:06:08.751Z,80.50
2018-09-03T00:06:29.114Z,80.51
2018-09-03T00:06:49.825Z,80.44
2018-09-03T00:07:09.671Z,80.57
2018-09-03T00:07:30.040Z,80.37
2018-09-03T00:07:50.754Z,80.39
2018-09-03T00:08:10.604Z,80.44
2018-09-03T00:08:30.943Z,80.51
2018-09-03T00:08:51.596Z,80.44
2018-09-03T00:09:11.458Z,80.46
2018-09-03T00:09:31.803Z,80.36
2018-09-03T00:09:52.462Z,80.54
2018-09-03T00:10:12.463Z,80.49
2018-09-03T00:10:32.834Z,80.48
2018-09-03T00:10:53.493Z,80.57
2018-09-03T00:11:13.452Z,80.51
2018-09-03T00:11:34.141Z,80.54
2018-09-03T00:11:54.106Z,80.56
2018-09-03T00:12:14.470Z,80.54
2018-09-03T00:12:35.212Z,80.51
2018-09-03T00:12:55.066Z,80.49
2018-09-03T00:13:15.429Z,80.56
2018-09-03T00:13:36.080Z,80.60
2018-09-03T00:13:55.938Z,80.83
2018-09-03T00:14:16.327Z,80.70
2018-09-03T00:14:36.983Z,80.71
2018-09-03T00:14:56.879Z,80.67
2018-09-03T00:15:17.319Z,80.83
2018-09-03T00:15:37.957Z,80.80
2018-09-03T00:15:57.818Z,80.86
2018-09-03T00:16:18.380Z,80.75
2018-09-03T00:16:38.529Z,80.94
2018-09-03T00:16:58.399Z,80.78
2018-09-03T00:17:19.080Z,80.78
2018-09-03T00:17:39.278Z,80.82
2018-09-03T00:17:59.152Z,81.05
2018-09-03T00:18:19.858Z,80.80
2018-09-03T00:18:59.726Z,80.99
2018-09-03T00:19:20.498Z,80.79
2018-09-03T00:19:40.403Z,80.79
2018-09-03T00:20:00.761Z,80.79
2018-09-03T00:20:21.450Z,80.89
2018-09-03T00:20:41.296Z,81.06
2018-09-03T00:21:01.884Z,80.94
2018-09-03T00:21:22.079Z,80.98
2018-09-03T00:21:41.936Z,80.98
2018-09-03T00:22:02.585Z,80.97
2018-09-03T00:22:22.730Z,80.94
2018-09-03T00:22:42.776Z,81.16
2018-09-03T00:23:02.954Z,81.03
2018-09-03T00:23:23.106Z,81.07
2018-09-03T00:23:42.961Z,81.25
2018-09-03T00:24:03.658Z,81.29
2018-09-03T00:24:23.799Z,81.61
2018-09-03T00:24:43.644Z,81.20
2018-09-03T00:25:04.327Z,81.03
2018-09-03T00:25:24.642Z,81.04
2018-09-03T00:25:44.462Z,81.06
2018-09-03T00:26:05.155Z,81.05
2018-09-03T00:26:25.020Z,81.10
2018-09-03T00:26:45.362Z,81.07
2018-09-03T00:27:06.124Z,81.05
2018-09-03T00:27:25.989Z,81.06
2018-09-03T00:27:46.346Z,81.11
2018-09-03T00:28:07.082Z,81.05
2018-09-03T00:28:26.935Z,81.03
2018-09-03T00:28:47.298Z,81.07
2018-09-03T00:29:07.766Z,81.07
2018-09-03T00:29:28.124Z,81.19
2018-09-03T00:29:48.815Z,81.14
2018-09-03T00:30:09.059Z,81.09
2018-09-03T00:30:28.930Z,81.08
2018-09-03T00:30:49.579Z,81.11
2018-09-03T00:31:09.430Z,81.13
2018-09-03T00:31:29.788Z,81.04
2018-09-03T00:31:50.551Z,81.08
2018-09-03T00:32:10.416Z,81.37
2018-09-03T00:32:30.772Z,81.16
2018-09-03T00:32:51.447Z,81.19
2018-09-03T00:33:11.293Z,81.09
2018-09-03T00:33:31.641Z,81.19
2018-09-03T00:33:52.349Z,81.34
2018-09-03T00:34:12.436Z,81.40
2018-09-03T00:34:32.291Z,81.36
2018-09-03T00:34:52.949Z,81.31
2018-09-03T00:35:13.076Z,81.43
2018-09-03T00:35:32.930Z,81.37
2018-09-03T00:35:53.580Z,81.46
2018-09-03T00:36:13.491Z,81.61
2018-09-03T00:36:34.188Z,81.56
2018-09-03T00:36:54.485Z,81.52
2018-09-03T00:37:14.334Z,81.72
2018-09-03T00:37:35.093Z,81.58
2018-09-03T00:37:54.948Z,81.59
2018-09-03T00:38:15.311Z,81.60
2018-09-03T00:38:36.036Z,81.61
2018-09-03T00:38:55.896Z,81.59
2018-09-03T00:39:16.243Z,81.76
2018-09-03T00:39:36.878Z,81.66
2018-09-03T00:39:56.788Z,81.84
2018-09-03T00:40:17.449Z,81.83
2018-09-03T00:40:37.588Z,81.78
2018-09-03T00:40:57.446Z,81.80
2018-09-03T00:41:17.799Z,81.83
2018-09-03T00:41:38.454Z,81.93
2018-09-03T00:42:18.585Z,81.85
2018-09-03T00:42:38.719Z,81.95
2018-09-03T00:42:58.574Z,81.95
2018-09-03T00:43:19.256Z,81.92
2018-09-03T00:43:39.169Z,81.96
2018-09-03T00:43:59.523Z,81.95
2018-09-03T00:44:20.235Z,81.92
2018-09-03T00:44:40.109Z,81.93
2018-09-03T00:45:00.461Z,82.06
2018-09-03T00:45:21.149Z,82.08
2018-09-03T00:45:41.015Z,82.09
2018-09-03T00:46:01.379Z,82.08
2018-09-03T00:46:22.065Z,82.07
2018-09-03T00:46:41.926Z,82.11
2018-09-03T00:47:02.447Z,82.13
2018-09-03T00:47:22.608Z,82.21
2018-09-03T00:47:42.474Z,82.48
2018-09-03T00:48:03.159Z,82.49
2018-09-03T00:48:23.310Z,82.50
2018-09-03T00:48:43.169Z,82.26
2018-09-03T00:49:03.867Z,82.22
2018-09-03T00:49:24.157Z,82.21
2018-09-03T00:49:44.002Z,82.22
2018-09-03T00:50:04.752Z,82.29
2018-09-03T00:50:24.610Z,82.46
2018-09-03T00:50:44.963Z,82.45
2018-09-03T00:51:05.677Z,82.51
2018-09-03T00:51:25.598Z,82.40
2018-09-03T00:51:45.980Z,82.56
2018-09-03T00:52:06.684Z,82.45
2018-09-03T00:52:26.566Z,82.70
2018-09-03T00:52:46.930Z,82.39
2018-09-03T00:53:07.582Z,82.30
2018-09-03T00:53:27.484Z,82.36
2018-09-03T00:53:47.838Z,82.34
2018-09-03T00:54:08.283Z,82.39
2018-09-03T00:54:28.642Z,82.26
2018-09-03T00:54:49.336Z,82.33
2018-09-03T00:55:09.510Z,82.30
2018-09-03T00:55:29.352Z,82.24
2018-09-03T00:55:50.073Z,82.25
2018-09-03T00:56:09.993Z,82.24
2018-09-03T00:56:30.356Z,82.19
2018-09-03T00:56:51.075Z,82.25
2018-09-03T00:57:10.936Z,82.16
2018-09-03T00:57:31.299Z,82.25
2018-09-03T00:57:51.989Z,82.24
2018-09-03T00:58:11.852Z,82.19
2018-09-03T00:58:32.311Z,82.23
2018-09-03T00:58:52.955Z,82.18
2018-09-03T00:59:12.799Z,82.21
2018-09-03T00:59:33.307Z,82.09
2018-09-03T00:59:53.447Z,82.15
2018-09-03T01:00:13.303Z,82.27
2018-09-03T01:00:34.025Z,82.29
2018-09-03T01:00:54.101Z,82.19
2018-09-03T01:01:13.940Z,82.21
2018-09-03T01:01:34.639Z,82.07
2018-09-03T01:01:54.646Z,82.12
2018-09-03T01:02:14.663Z,82.15
2018-09-03T01:02:34.875Z,82.21
2018-09-03T01:02:54.773Z,82.32
2018-09-03T01:03:15.127Z,82.29
2018-09-03T01:03:35.856Z,82.20
2018-09-03T01:03:55.867Z,82.37
2018-09-03T01:04:15.742Z,82.22
2018-09-03T01:04:36.460Z,82.14
2018-09-03T01:04:56.314Z,82.19
2018-09-03T01:05:16.899Z,82.22
2018-09-03T01:05:37.062Z,82.23
2018-09-03T01:05:56.928Z,82.08
2018-09-03T01:06:17.284Z,82.18
2018-09-03T01:06:57.646Z,82.15
2018-09-03T01:07:18.087Z,81.98
2018-09-03T01:07:38.729Z,81.89
2018-09-03T01:07:58.587Z,81.93
2018-09-03T01:08:19.307Z,82.13
2018-09-03T01:08:39.382Z,82.13
2018-09-03T01:08:59.244Z,82.04
2018-09-03T01:09:19.984Z,82.00
2018-09-03T01:09:40.051Z,82.17
2018-09-03T01:09:59.910Z,82.02
2018-09-03T01:10:20.646Z,81.98
2018-09-03T01:10:40.497Z,82.04
2018-09-03T01:11:00.858Z,82.10
2018-09-03T01:11:21.525Z,82.16
2018-09-03T01:11:41.388Z,82.09
2018-09-03T01:12:02.050Z,82.07
2018-09-03T01:12:21.889Z,82.03
2018-09-03T01:12:42.251Z,81.94
2018-09-03T01:13:02.916Z,81.92
2018-09-03T01:13:23.064Z,81.98
2018-09-03T01:13:42.909Z,81.84
2018-09-03T01:14:03.618Z,81.77
2018-09-03T01:14:23.768Z,81.79
2018-09-03T01:14:43.673Z,81.82
2018-09-03T01:15:04.369Z,81.83
2018-09-03T01:15:24.282Z,81.85
2018-09-03T01:15:44.631Z,81.79
2018-09-03T01:16:05.318Z,82.00
2018-09-03T01:16:25.175Z,81.86
2018-09-03T01:16:45.583Z,81.85
2018-09-03T01:17:06.297Z,81.86
2018-09-03T01:17:26.322Z,81.85
2018-09-03T01:17:46.352Z,81.76
2018-09-03T01:18:06.574Z,81.83
2018-09-03T01:18:26.422Z,81.84
2018-09-03T01:18:46.785Z,81.93
2018-09-03T01:19:07.447Z,81.95
2018-09-03T01:19:27.301Z,81.95
2018-09-03T01:19:47.659Z,81.95
2018-09-03T01:20:08.317Z,82.03
2018-09-03T01:20:28.249Z,81.95
2018-09-03T01:20:48.915Z,81.97
2018-09-03T01:21:09.178Z,81.81
2018-09-03T01:21:29.026Z,81.89
2018-09-03T01:21:49.745Z,81.85
2018-09-03T01:22:09.594Z,81.85
2018-09-03T01:22:29.937Z,81.85
2018-09-03T01:22:50.649Z,81.93
2018-09-03T01:23:10.504Z,81.85
2018-09-03T01:23:30.940Z,81.86
2018-09-03T01:23:51.599Z,81.86
2018-09-03T01:24:11.459Z,81.86
2018-09-03T01:24:31.819Z,81.90
2018-09-03T01:24:52.509Z,81.84
2018-09-03T01:25:12.357Z,81.86
2018-09-03T01:25:32.729Z,81.91
2018-09-03T01:25:53.374Z,81.84
2018-09-03T01:26:13.234Z,81.89
2018-09-03T01:26:33.874Z,81.89
2018-09-03T01:26:54.013Z,81.81
2018-09-03T01:27:13.880Z,81.80
2018-09-03T01:27:34.591Z,81.87
2018-09-03T01:27:54.490Z,81.89
2018-09-03T01:28:14.832Z,81.85
2018-09-03T01:28:35.541Z,81.79
2018-09-03T01:28:55.398Z,81.82
2018-09-03T01:29:15.755Z,81.75
2018-09-03T01:29:36.549Z,81.79
2018-09-03T01:29:56.284Z,81.80
2018-09-03T01:30:16.946Z,81.83
2018-09-03T01:30:37.097Z,81.84
2018-09-03T01:30:56.942Z,81.98
2018-09-03T01:31:17.299Z,81.88
2018-09-03T01:31:37.931Z,81.84
2018-09-03T01:31:57.788Z,81.93
2018-09-03T01:32:18.355Z,81.82
2018-09-03T01:32:38.493Z,81.72
2018-09-03T01:32:58.350Z,81.76
2018-09-03T01:33:19.054Z,81.88
2018-09-03T01:33:39.202Z,82.02
2018-09-03T01:33:59.138Z,81.90
2018-09-03T01:34:20.117Z,81.99
2018-09-03T01:34:40.251Z,81.86
2018-09-03T01:35:00.523Z,81.92
2018-09-03T01:35:20.980Z,81.88
2018-09-03T01:35:41.206Z,81.85
2018-09-03T01:36:01.191Z,81.80
2018-09-03T01:36:21.977Z,81.75
2018-09-03T01:36:41.906Z,81.83
2018-09-03T01:37:02.901Z,81.99
2018-09-03T01:37:23.226Z,81.95
2018-09-03T01:37:43.650Z,81.89
2018-09-03T01:38:04.140Z,81.82
2018-09-03T01:38:24.607Z,81.80
2018-09-03T01:38:44.899Z,81.80
2018-09-03T01:39:05.408Z,81.85
2018-09-03T01:39:25.131Z,81.95
2018-09-03T01:40:05.628Z,81.90
2018-09-03T01:40:25.474Z,82.17
2018-09-03T01:40:46.163Z,82.20
2018-09-03T01:41:06.701Z,82.17
2018-09-03T01:41:26.181Z,82.09
2018-09-03T01:41:46.531Z,82.14
2018-09-03T01:42:07.194Z,82.09
2018-09-03T01:42:27.052Z,82.12
2018-09-03T01:42:47.483Z,82.15
2018-09-03T01:43:08.128Z,82.17
2018-09-03T01:43:27.994Z,82.15
2018-09-03T01:43:48.726Z,82.14
2018-09-03T01:44:08.878Z,82.27
2018-09-03T01:44:28.735Z,82.39
2018-09-03T01:44:49.453Z,82.53
2018-09-03T01:45:09.576Z,82.37
2018-09-03T01:45:29.426Z,82.50
2018-09-03T01:45:50.214Z,82.35
2018-09-03T01:46:10.292Z,82.42
2018-09-03T01:46:30.147Z,82.43
2018-09-03T01:46:50.845Z,82.37
2018-09-03T01:47:10.694Z,82.42
2018-09-03T01:47:31.050Z,82.49
2018-09-03T01:47:51.721Z,82.47
2018-09-03T01:48:11.582Z,82.48
2018-09-03T01:48:31.944Z,82.48
2018-09-03T01:48:52.590Z,82.64
2018-09-03T01:49:12.446Z,82.58
2018-09-03T01:49:32.813Z,82.60
2018-09-03T01:49:53.454Z,82.63
2018-09-03T01:50:13.469Z,82.66
2018-09-03T01:50:33.591Z,82.62
2018-09-03T01:51:13.469Z,82.62
2018-09-03T01:51:34.153Z,82.65
2018-09-03T01:51:54.270Z,82.59
2018-09-03T01:52:14.310Z,82.62
2018-09-03T01:52:34.512Z,82.65
2018-09-03T01:52:54.510Z,82.65
2018-09-03T01:53:14.865Z,82.64
2018-09-03T01:53:35.581Z,82.62
2018-09-03T01:53:55.433Z,82.72
2018-09-03T01:54:15.788Z,82.65
2018-09-03T01:54:36.467Z,82.63
2018-09-03T01:54:56.333Z,82.78
2018-09-03T01:55:16.720Z,82.68
2018-09-03T01:55:37.410Z,82.68
2018-09-03T01:55:57.313Z,82.78
2018-09-03T01:56:17.667Z,82.82
2018-09-03T01:56:38.317Z,82.89
2018-09-03T01:56:58.176Z,82.99
2018-09-03T01:57:18.847Z,82.94
2018-09-03T01:57:38.956Z,82.88
2018-09-03T01:57:58.799Z,82.93
2018-09-03T01:58:19.528Z,82.91
2018-09-03T01:58:59.596Z,82.95
2018-09-03T01:59:19.796Z,83.07
2018-09-03T01:59:39.649Z,83.03
2018-09-03T02:00:00.002Z,83.09
2018-09-03T02:00:20.705Z,83.11
2018-09-03T02:00:40.561Z,83.09
2018-09-03T02:01:00.912Z,83.15
2018-09-03T02:01:21.618Z,83.17
2018-09-03T02:01:41.484Z,83.06
2018-09-03T02:02:02.049Z,83.00
2018-09-03T02:02:22.233Z,83.01
2018-09-03T02:02:42.088Z,83.05
2018-09-03T02:03:02.746Z,83.12
2018-09-03T02:03:22.887Z,83.14
2018-09-03T02:03:42.791Z,83.17
2018-09-03T02:04:03.338Z,83.25
2018-09-03T02:04:23.491Z,83.22
2018-09-03T02:04:43.349Z,83.25
2018-09-03T02:05:04.063Z,83.25
2018-09-03T02:05:24.100Z,83.23
2018-09-03T02:05:44.084Z,83.32
2018-09-03T02:06:04.783Z,83.25
2018-09-03T02:06:24.743Z,83.34
2018-09-03T02:06:45.098Z,83.33
2018-09-03T02:07:05.770Z,83.31
2018-09-03T02:07:25.630Z,83.33
2018-09-03T02:07:45.995Z,83.36
2018-09-03T02:08:06.762Z,83.34
2018-09-03T02:08:26.638Z,83.41
2018-09-03T02:09:07.431Z,83.51
2018-09-03T02:09:27.279Z,83.50
2018-09-03T02:09:47.628Z,83.64
2018-09-03T02:10:08.282Z,83.57
2018-09-03T02:10:28.143Z,83.58
2018-09-03T02:10:48.853Z,83.57
2018-09-03T02:11:09.057Z,83.59
2018-09-03T02:11:28.913Z,83.54
2018-09-03T02:11:49.605Z,83.50
2018-09-03T02:12:09.522Z,83.55
2018-09-03T02:12:29.875Z,83.62
2018-09-03T02:12:50.584Z,83.67
2018-09-03T02:13:10.490Z,83.73
2018-09-03T02:13:30.858Z,83.74
2018-09-03T02:13:51.508Z,83.69
2018-09-03T02:14:11.369Z,83.68
2018-09-03T02:14:31.715Z,83.61
2018-09-03T02:14:52.372Z,83.73
2018-09-03T02:15:12.453Z,83.60
2018-09-03T02:15:32.323Z,83.71
2018-09-03T02:15:52.967Z,83.70
2018-09-03T02:16:12.861Z,83.73
2018-09-03T02:16:33.364Z,83.76
2018-09-03T02:16:53.519Z,83.78
2018-09-03T02:17:13.414Z,83.77
2018-09-03T02:17:34.089Z,83.83
2018-09-03T02:17:54.408Z,83.89
2018-09-03T02:18:14.276Z,83.83
2018-09-03T02:18:34.997Z,83.76
2018-09-03T02:18:54.868Z,83.66
2018-09-03T02:19:15.309Z,83.65
2018-09-03T02:19:36.011Z,83.70
2018-09-03T02:19:55.857Z,83.79
2018-09-03T02:20:16.537Z,83.78
2018-09-03T02:20:36.739Z,83.78
2018-09-03T02:20:56.612Z,83.81
2018-09-03T02:21:17.013Z,83.73
2018-09-03T02:21:37.649Z,83.79
2018-09-03T02:21:57.504Z,83.83
2018-09-03T02:22:18.106Z,83.85
2018-09-03T02:22:38.267Z,83.82
2018-09-03T02:22:58.124Z,83.88
2018-09-03T02:23:18.849Z,83.90
2018-09-03T02:23:38.996Z,83.88
2018-09-03T02:24:19.231Z,83.90
2018-09-03T02:24:39.293Z,83.83
2018-09-03T02:24:59.139Z,83.89
2018-09-03T02:25:19.855Z,84.08
2018-09-03T02:25:39.709Z,84.01
2018-09-03T02:26:00.081Z,84.00
2018-09-03T02:26:20.805Z,83.97
2018-09-03T02:26:40.663Z,84.03
2018-09-03T02:27:01.017Z,83.94
2018-09-03T02:27:21.675Z,83.92
2018-09-03T02:27:41.521Z,83.93
2018-09-03T02:28:01.886Z,84.01
2018-09-03T02:28:42.254Z,84.01
2018-09-03T02:29:02.925Z,84.22
2018-09-03T02:29:23.059Z,84.19
2018-09-03T02:29:42.922Z,84.18
2018-09-03T02:30:03.753Z,84.11
2018-09-03T02:30:23.895Z,84.16
2018-09-03T02:30:43.755Z,84.14
2018-09-03T02:31:04.459Z,84.17
2018-09-03T02:31:24.552Z,84.17
2018-09-03T02:31:44.407Z,84.14
2018-09-03T02:32:05.111Z,84.29
2018-09-03T02:32:24.953Z,84.24
2018-09-03T02:32:45.423Z,84.18
2018-09-03T02:33:06.152Z,84.13
2018-09-03T02:33:26.008Z,84.18
2018-09-03T02:33:46.356Z,84.16
2018-09-03T02:34:07.059Z,84.17
2018-09-03T02:34:26.958Z,84.14
2018-09-03T02:34:47.312Z,84.18
2018-09-03T02:35:07.963Z,84.23
2018-09-03T02:35:27.928Z,84.19
2018-09-03T02:35:48.540Z,84.19
2018-09-03T02:36:08.404Z,84.25
2018-09-03T02:36:28.862Z,84.18
2018-09-03T02:36:49.596Z,84.10
2018-09-03T02:37:09.728Z,84.10
2018-09-03T02:37:29.583Z,84.27
2018-09-03T02:37:50.325Z,84.36
2018-09-03T02:38:10.185Z,84.25
2018-09-03T02:38:30.546Z,84.23
2018-09-03T02:38:51.276Z,84.18
2018-09-03T02:39:11.176Z,84.22
2018-09-03T02:39:31.521Z,84.25
2018-09-03T02:39:52.238Z,84.21
2018-09-03T02:40:12.080Z,84.18
2018-09-03T02:40:32.437Z,84.19
2018-09-03T02:40:53.079Z,84.11
2018-09-03T02:41:12.950Z,84.24
2018-09-03T02:41:33.532Z,84.18
2018-09-03T02:41:53.915Z,84.17
2018-09-03T02:42:13.777Z,84.08
2018-09-03T02:42:34.471Z,84.18
2018-09-03T02:42:54.335Z,84.15
2018-09-03T02:43:14.695Z,84.15
2018-09-03T02:43:35.392Z,84.17
2018-09-03T02:43:55.485Z,84.27
2018-09-03T02:44:15.339Z,84.26
2018-09-03T02:44:36.034Z,84.28
2018-09-03T02:44:55.887Z,84.15
2018-09-03T02:45:16.559Z,84.26
2018-09-03T02:45:36.706Z,84.12
2018-09-03T02:45:56.798Z,84.12
2018-09-03T02:46:16.679Z,84.05
2018-09-03T02:46:37.336Z,84.00
2018-09-03T02:46:57.196Z,83.95
2018-09-03T02:47:17.553Z,83.96
2018-09-03T02:47:38.206Z,83.87
2018-09-03T02:47:58.062Z,83.87
2018-09-03T02:48:18.751Z,83.87
2018-09-03T02:48:38.889Z,83.86
2018-09-03T02:48:58.762Z,83.86
2018-09-03T02:49:19.462Z,83.81
2018-09-03T02:49:39.413Z,83.85
2018-09-03T02:49:59.769Z,83.87
2018-09-03T02:50:20.492Z,83.90
2018-09-03T02:50:40.366Z,83.95
2018-09-03T02:51:00.775Z,83.85
2018-09-03T02:51:21.529Z,83.72
2018-09-03T02:51:41.594Z,83.82
2018-09-03T02:52:01.467Z,83.82
2018-09-03T02:52:22.144Z,83.80
2018-09-03T02:52:42.109Z,83.75
2018-09-03T02:53:02.770Z,83.63
2018-09-03T02:53:22.917Z,83.60
2018-09-03T02:53:42.777Z,83.58
2018-09-03T02:54:03.493Z,83.62
2018-09-03T02:54:23.645Z,83.60
2018-09-03T02:54:43.505Z,83.60
2018-09-03T02:55:04.272Z,83.54
2018-09-03T02:55:24.374Z,83.53
2018-09-03T02:55:44.243Z,83.49
2018-09-03T02:56:04.898Z,83.50
2018-09-03T02:56:24.747Z,83.49
2018-09-03T02:56:45.090Z,83.46
2018-09-03T02:57:05.855Z,83.49
2018-09-03T02:57:25.711Z,83.41
2018-09-03T02:57:46.068Z,83.37
2018-09-03T02:58:06.817Z,83.38
2018-09-03T02:58:26.920Z,83.34
2018-09-03T02:58:46.846Z,83.40
2018-09-03T02:59:07.511Z,83.40
2018-09-03T02:59:27.365Z,83.37
2018-09-03T02:59:47.815Z,83.33
2018-09-03T03:00:08.464Z,83.34
2018-09-03T03:00:28.320Z,83.32
2018-09-03T03:00:49.029Z,83.35
2018-09-03T03:01:09.216Z,83.43
2018-09-03T03:01:29.192Z,83.38
2018-09-03T03:01:49.937Z,83.38
2018-09-03T03:02:09.793Z,83.49
2018-09-03T03:02:30.143Z,83.38
2018-09-03T03:02:50.862Z,83.42
2018-09-03T03:03:10.731Z,83.59
2018-09-03T03:03:31.107Z,83.59
2018-09-03T03:03:52.008Z,83.76
2018-09-03T03:04:11.904Z,83.72
2018-09-03T03:04:32.258Z,83.82
2018-09-03T03:04:52.906Z,84.22
2018-09-03T03:05:12.909Z,84.17
2018-09-03T03:05:32.770Z,84.11
2018-09-03T03:05:53.431Z,84.33
2018-09-03T03:06:13.296Z,84.38
2018-09-03T03:06:33.935Z,84.40
2018-09-03T03:06:54.025Z,84.30
2018-09-03T03:07:13.875Z,84.61
2018-09-03T03:07:34.630Z,84.76
2018-09-03T03:07:54.541Z,84.78
2018-09-03T03:08:15.018Z,84.97
2018-09-03T03:08:35.721Z,84.93
2018-09-03T03:08:55.583Z,85.09
2018-09-03T03:09:15.944Z,85.25
2018-09-03T03:09:36.621Z,85.57
2018-09-03T03:09:56.700Z,85.59
2018-09-03T03:10:16.869Z,85.92
2018-09-03T03:10:37.044Z,85.82
2018-09-03T03:10:57.054Z,85.96
2018-09-03T03:11:16.906Z,86.15
2018-09-03T03:11:37.614Z,86.26
2018-09-03T03:11:57.424Z,86.39
2018-09-03T03:12:17.781Z,86.43
2018-09-03T03:12:38.432Z,86.55
2018-09-03T03:12:58.306Z,86.69
2018-09-03T03:13:19.076Z,86.76
2018-09-03T03:13:39.085Z,86.69
2018-09-03T03:13:58.930Z,86.58
2018-09-03T03:14:19.661Z,86.66
2018-09-03T03:14:39.518Z,87.02
2018-09-03T03:14:59.883Z,87.04
2018-09-03T03:15:20.618Z,87.32
2018-09-03T03:15:40.474Z,87.40
2018-09-03T03:16:00.828Z,87.63
2018-09-03T03:16:21.518Z,87.62
2018-09-03T03:16:41.383Z,87.67
2018-09-03T03:17:02.026Z,87.81
2018-09-03T03:17:22.148Z,87.93
2018-09-03T03:17:42.002Z,88.00
2018-09-03T03:18:02.607Z,87.92
2018-09-03T03:18:22.765Z,88.43
2018-09-03T03:18:42.660Z,88.35
2018-09-03T03:19:03.339Z,88.43
2018-09-03T03:19:23.492Z,88.40
2018-09-03T03:19:43.343Z,88.55
2018-09-03T03:20:04.090Z,88.62
2018-09-03T03:20:24.152Z,88.85
2018-09-03T03:20:44.004Z,88.81
2018-09-03T03:21:04.690Z,88.85
2018-09-03T03:21:24.604Z,88.91
2018-09-03T03:21:44.967Z,88.98
2018-09-03T03:22:05.703Z,89.17
2018-09-03T03:22:25.544Z,89.22
2018-09-03T03:22:45.909Z,89.27
2018-09-03T03:23:06.660Z,89.38
2018-09-03T03:23:26.604Z,89.49
2018-09-03T03:23:46.955Z,89.56
2018-09-03T03:24:07.600Z,89.47
2018-09-03T03:24:27.503Z,89.59
2018-09-03T03:24:47.862Z,89.54
2018-09-03T03:25:08.508Z,89.73
2018-09-03T03:25:28.408Z,89.81
2018-09-03T03:25:49.094Z,89.82
2018-09-03T03:26:08.957Z,89.82
2018-09-03T03:26:29.405Z,89.91
2018-09-03T03:26:50.095Z,89.95
2018-09-03T03:27:09.947Z,90.02
2018-09-03T03:27:30.304Z,90.05
2018-09-03T03:27:51.022Z,90.10
2018-09-03T03:28:10.880Z,90.16
2018-09-03T03:28:31.235Z,90.19
2018-09-03T03:28:51.875Z,90.25
2018-09-03T03:29:11.739Z,90.21
2018-09-03T03:29:32.156Z,90.22
2018-09-03T03:29:52.792Z,90.34
2018-09-03T03:30:12.661Z,90.36
2018-09-03T03:30:33.116Z,90.36
2018-09-03T03:30:54.064Z,90.39
2018-09-03T03:31:13.924Z,90.47
2018-09-03T03:31:34.660Z,90.48
2018-09-03T03:31:54.644Z,90.57
2018-09-03T03:32:15.004Z,90.55
2018-09-03T03:32:35.711Z,90.67
2018-09-03T03:32:55.580Z,90.66
2018-09-03T03:33:15.937Z,90.61
2018-09-03T03:33:36.589Z,90.63
2018-09-03T03:33:56.494Z,90.77
2018-09-03T03:34:16.856Z,90.80
2018-09-03T03:34:37.506Z,90.85
2018-09-03T03:34:57.352Z,90.80
2018-09-03T03:35:17.711Z,90.87
2018-09-03T03:35:38.361Z,90.93
2018-09-03T03:35:58.224Z,90.94
2018-09-03T03:36:18.921Z,91.03
2018-09-03T03:36:39.259Z,91.00
2018-09-03T03:36:59.120Z,91.02
2018-09-03T03:37:19.851Z,91.09
2018-09-03T03:37:39.700Z,91.15
2018-09-03T03:38:00.059Z,91.17
2018-09-03T03:38:20.774Z,91.10
2018-09-03T03:38:40.637Z,91.12
2018-09-03T03:39:01.000Z,91.13
2018-09-03T03:39:21.726Z,91.17
2018-09-03T03:39:41.797Z,91.23
2018-09-03T03:40:01.778Z,91.31
2018-09-03T03:40:22.485Z,91.39
2018-09-03T03:40:42.425Z,91.36
2018-09-03T03:41:03.145Z,91.45
2018-09-03T03:41:23.290Z,91.49
2018-09-03T03:41:43.405Z,91.50
2018-09-03T03:42:03.620Z,91.51
2018-09-03T03:42:23.775Z,91.64
2018-09-03T03:42:43.764Z,91.59
2018-09-03T03:43:04.472Z,91.64
2018-09-03T03:43:24.613Z,91.89
2018-09-03T03:43:44.520Z,91.85
2018-09-03T03:44:05.230Z,91.83
2018-09-03T03:44:25.107Z,91.82
2018-09-03T03:44:45.434Z,91.85
2018-09-03T03:45:06.150Z,91.86
2018-09-03T03:45:26.218Z,91.90
2018-09-03T03:45:46.065Z,92.13
2018-09-03T03:46:06.827Z,92.12
2018-09-03T03:46:26.963Z,92.09
2018-09-03T03:46:46.975Z,92.07
2018-09-03T03:47:07.176Z,92.12
2018-09-03T03:47:27.029Z,92.14
2018-09-03T03:47:47.376Z,92.27
2018-09-03T03:48:08.019Z,92.26
2018-09-03T03:48:27.888Z,92.28
2018-09-03T03:48:48.547Z,92.29
2018-09-03T03:49:08.379Z,92.41
2018-09-03T03:49:28.725Z,92.28
2018-09-03T03:49:49.461Z,92.26
2018-09-03T03:50:09.318Z,92.29
2018-09-03T03:50:50.054Z,92.35
2018-09-03T03:51:09.913Z,92.42
2018-09-03T03:51:30.270Z,92.33
2018-09-03T03:51:50.963Z,92.32
2018-09-03T03:52:10.826Z,92.29
2018-09-03T03:52:31.188Z,92.31
2018-09-03T03:52:51.849Z,92.32
2018-09-03T03:53:11.749Z,92.37
2018-09-03T03:53:32.116Z,92.36
2018-09-03T03:53:52.759Z,92.35
2018-09-03T03:54:12.624Z,92.29
2018-09-03T03:54:33.075Z,92.27
2018-09-03T03:54:53.742Z,92.28
2018-09-03T03:55:13.962Z,92.30
2018-09-03T03:55:34.062Z,92.35
2018-09-03T03:55:54.317Z,92.37
2018-09-03T03:56:14.176Z,92.34
2018-09-03T03:56:34.879Z,92.35
2018-09-03T03:56:54.736Z,92.35
2018-09-03T03:57:15.092Z,92.37
2018-09-03T03:57:35.910Z,92.38
2018-09-03T03:57:55.791Z,92.40
2018-09-03T03:58:16.159Z,92.42
2018-09-03T03:58:36.875Z,92.42
2018-09-03T03:58:56.743Z,92.43
2018-09-03T03:59:17.105Z,92.45
2018-09-03T03:59:37.769Z,92.46
2018-09-03T03:59:57.613Z,92.46
2018-09-03T04:00:18.237Z,92.47
2018-09-03T04:00:38.399Z,92.48
2018-09-03T04:00:58.256Z,92.56
2018-09-03T04:01:18.893Z,92.57
2018-09-03T04:01:39.048Z,92.57
2018-09-03T04:01:58.946Z,92.67
2018-09-03T04:02:19.637Z,92.70
2018-09-03T04:02:39.652Z,92.70
2018-09-03T04:02:59.516Z,92.72
2018-09-03T04:03:20.253Z,92.75
2018-09-03T04:03:40.112Z,92.79
2018-09-03T04:04:00.521Z,92.82
2018-09-03T04:04:21.230Z,92.85
2018-09-03T04:04:41.084Z,92.89
2018-09-03T04:05:01.567Z,92.90
2018-09-03T04:05:22.244Z,92.91
2018-09-03T04:05:42.356Z,92.93
2018-09-03T04:06:02.464Z,92.92
2018-09-03T04:06:22.627Z,92.92
2018-09-03T04:06:42.480Z,92.96
2018-09-03T04:07:03.167Z,92.96
2018-09-03T04:07:23.335Z,92.96
2018-09-03T04:07:43.181Z,93.02
2018-09-03T04:08:03.912Z,93.02
2018-09-03T04:08:24.016Z,93.12
2018-09-03T04:08:43.891Z,93.22
2018-09-03T04:09:04.560Z,93.20
2018-09-03T04:09:24.426Z,93.19
2018-09-03T04:09:44.785Z,93.24
2018-09-03T04:10:05.443Z,93.19
2018-09-03T04:10:25.296Z,93.21
2018-09-03T04:10:45.696Z,93.23
2018-09-03T04:11:06.381Z,93.23
2018-09-03T04:11:26.228Z,93.32
2018-09-03T04:11:46.624Z,93.38
2018-09-03T04:12:07.132Z,93.32
2018-09-03T04:12:27.006Z,93.32
2018-09-03T04:12:47.371Z,93.34
2018-09-03T04:13:07.818Z,93.36
2018-09-03T04:13:28.324Z,93.41
2018-09-03T04:13:48.359Z,93.43
2018-09-03T04:14:08.207Z,93.39
2018-09-03T04:14:28.576Z,93.35
2018-09-03T04:14:49.249Z,93.34
2018-09-03T04:15:09.542Z,93.46
2018-09-03T04:15:29.410Z,93.41
2018-09-03T04:15:50.103Z,93.43
2018-09-03T04:16:09.993Z,93.37
2018-09-03T04:16:30.318Z,93.44
2018-09-03T04:16:51.087Z,93.41
2018-09-03T04:17:10.945Z,93.41
2018-09-03T04:17:31.324Z,93.41
2018-09-03T04:17:51.994Z,93.42
2018-09-03T04:18:11.885Z,93.44
2018-09-03T04:18:32.235Z,93.47
2018-09-03T04:18:52.871Z,93.48
2018-09-03T04:19:12.727Z,93.51
2018-09-03T04:19:33.186Z,93.54
2018-09-03T04:19:53.931Z,93.55
2018-09-03T04:20:13.953Z,93.55
2018-09-03T04:20:34.163Z,93.57
2018-09-03T04:20:54.131Z,93.63
2018-09-03T04:21:14.499Z,93.60
2018-09-03T04:21:35.219Z,93.61
2018-09-03T04:21:55.078Z,93.58
2018-09-03T04:22:15.428Z,93.61
2018-09-03T04:22:36.102Z,93.62
2018-09-03T04:22:56.046Z,93.57
2018-09-03T04:23:16.450Z,93.54
2018-09-03T04:23:37.001Z,93.51
2018-09-03T04:23:56.903Z,93.45
2018-09-03T04:24:17.266Z,93.46